Sioux City, Iowa
Current Conditions -  °F | °C
As of 11:52 PM on Friday 24 Oct 2014 (Local Time) from KSUX Reporting Station
Clear Clear  
Wind Chill: 45°   Ceiling: Unl
Heat Index: 48°   Visibility: 10mi
Dew Point: 44°   Wind: 7mph
Humidity: 86%   Direction: 300°WNW
Pressure: 30.01"   Gusts: NA
Location:  42.5°N, 96.42°W
Report Text: KSUX 250452Z AUTO 30006KT 10SM CLR 09/07 A3001 RMK AO2 SLP163 T00890067
Loading
Personal Weather Stations






























Interactive Weather Map New forecast layout! Learn more

10-Day Weather Forecast

Advertisements
Track Severe Weather on mobile